FNLU METAR and TAF | Updated Today

FNLU METAR

Quatro de Fevereiro Airport

Observation time: 19 min. ago

FNLU 052100Z 17008KT 9000 BKN020 27/23 Q1011 NOSIG

Need help? Read our tutorial on how to read METARs or read the parsed version below.

Quatro de Fevereiro Airport (FNLU) METAR

  • Weather conditions on Sun, 05 Feb 2023 21:00:00 +0000 (19 min. ago):
  • Present conditions: Dry
  • Clouds: Broken sky at 610 meters
  • Visibility: 9000 meters
  • Wind: 170 degrees at 8 knots
  • Temperature: 27 celsius
  • Dew point: 23 celsius
  • Pressure: 1011 millibars
  • Remarks: None


Useful to know...

FNLU TAF

Quatro de Fevereiro Airport

TAF COR FNLU 051700Z 0518/0624 25009KT 9999 FEW018 BKN022 PROB30 TEMPO 0614/0618 5000 TSRA FEW020CB BKN027
Observation time: 4:19 hr. ago
Need help? Read our tutorial on how to read TAFs or read the parsed version below.

Parsed version of TAF for Quatro de Fevereiro Airport (FNLU)

  • From 05 February at 18:00 UTC, to day 06 of the month at 24:00 UTC
  • Clouds: A few at 549 meters; broken sky at 671 meters
  • Visibility: Greater than 10 km
  • Wind: 250 degrees at 9
  • Expected to arise temporarily, from 06 February at 14:00 UTC, to day 06 of the month at 18:00 UTC
    Probability of 30%
  • Clouds: A few at 610 meters, cumulonimbus; broken sky at 823 meters
  • Visibility: 5000 meters
  • Other: Thunderstorms rain

Airports near FNLU

No airports found within 100nm radius.